Terminal Aerodrome Forecast
Issued by NWS Buffalo, NY

Home | Current Version | Previous Version | Text Only | Print | Product List | Glossary On
Versions: 1 2 3 4 5 6 7 8 9 10 11 12 13 14 15 16 17 18 19 20 21 22 23 24 25 26
000
FTUS41 KBUF 162320
TAFBUF
TAF
KBUF 162320Z 1700/1724 24008KT 2SM -SN OVC025
     FM170200 23011KT P6SM BKN025
     FM170500 22011KT P6SM OVC120
     FM170800 23011KT P6SM VCSH BKN012
     FM171900 23015G25KT P6SM BKN020=

USA.gov is the U.S. government's official web portal to all federal, state and local government web resources and services.